MSY weather

Louis Armstrong New Orleans International Airport
New Orleans, Louisiana, United States

Public forecast

Using degrees Fahrenheit for public forecast. Weather courtesy of forecast.io.

METAR (pilot weather report)

Retrieved 2019/03/19 18:53 UTC (19 minutes ago):

KMSY 191853Z 05008KT 10SM FEW150 SCT250 17/M01 A3027 RMK AO2 SLP254 T01721011

TAF (pilot weather forecast)

Retrieved 2019/03/19 18:22 UTC (50 minutes ago):

TAF KMSY 191720Z 1918/2024 04012KT P6SM FEW180 FEW250 FM192100 02007KT P6SM FEW140 FEW250 FM200300 04006KT P6SM SKC